METAR Data
IDs: Format: Raw Decoded Include TAF

Data at: 0201 UTC 01 Mar 2021

KOLZ 010155Z AUTO 30014KT 10SM CLR M04/M06 A3003 RMK A01